createdAt,value
2023-03-12T00:01:59.580Z,101413.66
2023-03-12T00:04:26.767Z,101371.88
2023-03-12T00:06:53.150Z,101405.44
2023-03-12T00:09:19.824Z,101401.84
2023-03-12T00:11:46.183Z,101406.00
2023-03-12T00:14:12.560Z,101392.78
2023-03-12T00:16:38.929Z,101394.69
2023-03-12T00:19:05.387Z,101395.63
2023-03-12T00:21:31.823Z,101391.09
2023-03-12T00:23:58.350Z,101394.09
2023-03-12T00:26:24.769Z,101388.56
2023-03-12T00:28:51.437Z,101389.38
2023-03-12T00:31:21.000Z,101388.44
2023-03-12T00:33:51.322Z,101380.50
2023-03-12T00:36:24.851Z,101381.19
2023-03-12T00:38:51.861Z,101381.78
2023-03-12T00:41:21.583Z,101338.63
2023-03-12T00:43:49.434Z,101351.75
2023-03-12T00:46:15.897Z,101372.91
2023-03-12T00:48:42.437Z,101360.44
2023-03-12T00:51:09.299Z,101368.28
2023-03-12T00:53:36.493Z,101366.00
2023-03-12T00:56:04.272Z,101368.25
2023-03-12T00:58:30.829Z,101366.84
2023-03-12T01:00:57.280Z,101367.31
2023-03-12T01:03:23.685Z,101361.09
2023-03-12T01:05:54.012Z,101364.78
2023-03-12T01:08:21.584Z,101360.91
2023-03-12T01:10:48.151Z,101361.66
2023-03-12T01:13:14.542Z,101366.19
2023-03-12T01:15:40.934Z,101365.91
2023-03-12T01:18:07.339Z,101363.66
2023-03-12T01:20:35.949Z,101367.63
2023-03-12T01:23:02.340Z,101371.50
2023-03-12T01:25:28.734Z,101356.38
2023-03-12T01:27:55.128Z,101358.56
2023-03-12T01:30:21.527Z,101358.00
2023-03-12T01:32:47.978Z,101355.53
2023-03-12T01:35:14.563Z,101358.06
2023-03-12T01:37:40.947Z,101353.56
2023-03-12T01:40:07.770Z,101339.97
2023-03-12T01:42:34.184Z,101349.22
2023-03-12T01:45:03.682Z,101350.53
2023-03-12T01:47:33.363Z,101323.38
2023-03-12T01:50:00.877Z,101346.47
2023-03-12T01:52:30.725Z,101343.75
2023-03-12T01:55:06.450Z,101349.38
2023-03-12T01:57:55.636Z,101335.28
2023-03-12T02:00:27.141Z,101340.94
2023-03-12T02:02:59.685Z,101332.25
2023-03-12T02:05:44.920Z,101328.94
2023-03-12T02:08:13.333Z,101327.06
2023-03-12T02:10:39.891Z,101323.34
2023-03-12T02:13:06.847Z,101312.22
2023-03-12T02:15:35.285Z,101285.81
2023-03-12T02:18:09.476Z,101308.75
2023-03-12T02:20:58.941Z,101312.78
2023-03-12T02:23:31.566Z,101303.72
2023-03-12T02:25:59.933Z,101266.19
2023-03-12T02:28:29.257Z,101299.97
2023-03-12T02:31:02.241Z,101299.91
2023-03-12T02:33:28.617Z,101299.19
2023-03-12T02:35:55.775Z,101301.53
2023-03-12T02:38:34.109Z,101302.16
2023-03-12T02:41:05.606Z,101298.03
2023-03-12T02:43:32.426Z,101290.25
2023-03-12T02:45:58.837Z,101298.00
2023-03-12T02:48:25.270Z,101295.44
2023-03-12T02:50:51.620Z,101295.28
2023-03-12T02:53:17.989Z,101283.72
2023-03-12T02:55:44.386Z,101273.59
2023-03-12T02:58:10.746Z,101267.78
2023-03-12T03:00:37.763Z,101262.56
2023-03-12T03:03:04.177Z,101266.94
2023-03-12T03:05:30.622Z,101259.78
2023-03-12T03:07:57.062Z,101269.06
2023-03-12T03:10:23.416Z,101254.47
2023-03-12T03:12:51.389Z,101260.75
2023-03-12T03:15:17.921Z,101248.03
2023-03-12T03:17:44.363Z,101257.00
2023-03-12T03:20:11.935Z,101249.28
2023-03-12T03:22:39.285Z,101239.84
2023-03-12T03:25:07.574Z,101248.56
2023-03-12T03:27:34.174Z,101249.41
2023-03-12T03:30:00.699Z,101234.63
2023-03-12T03:32:27.302Z,101238.84
2023-03-12T03:34:53.780Z,101233.34
2023-03-12T03:37:20.172Z,101231.16
2023-03-12T03:39:46.519Z,101239.53
2023-03-12T03:42:12.916Z,101233.59
2023-03-12T03:44:39.324Z,101230.44
2023-03-12T03:47:05.841Z,101231.16
2023-03-12T03:49:32.268Z,101229.25
2023-03-12T03:51:58.637Z,101226.59
2023-03-12T03:54:25.019Z,101227.03
2023-03-12T03:56:51.412Z,101223.25
2023-03-12T03:59:17.852Z,101213.81
2023-03-12T04:01:44.210Z,101210.22
2023-03-12T04:04:10.608Z,101211.16
2023-03-12T04:06:37.075Z,101168.22
2023-03-12T04:09:03.645Z,101197.66
2023-03-12T04:11:30.109Z,101202.09
2023-03-12T04:13:57.636Z,101192.78
2023-03-12T04:16:24.695Z,101195.09
2023-03-12T04:18:51.142Z,101191.94
2023-03-12T04:21:17.699Z,101179.41
2023-03-12T04:23:44.102Z,101182.91
2023-03-12T04:26:10.764Z,101148.94
2023-03-12T04:28:37.894Z,101174.47
2023-03-12T04:31:07.219Z,101184.53
2023-03-12T04:33:36.328Z,101145.78
2023-03-12T04:36:02.928Z,101165.25
2023-03-12T04:38:30.481Z,101164.31
2023-03-12T04:41:11.002Z,101157.56
2023-03-12T04:43:37.483Z,101125.47
2023-03-12T04:46:04.606Z,101150.47
2023-03-12T04:48:31.002Z,101146.97
2023-03-12T04:50:57.406Z,101142.00
2023-03-12T04:53:24.477Z,101147.94
2023-03-12T04:55:51.306Z,101142.94
2023-03-12T04:58:19.109Z,101154.06
2023-03-12T05:00:47.154Z,101147.09
2023-03-12T05:03:13.640Z,101139.44
2023-03-12T05:05:40.135Z,101128.34
2023-03-12T05:08:06.577Z,101133.97
2023-03-12T05:10:33.373Z,101136.81
2023-03-12T05:12:59.908Z,101097.47
2023-03-12T05:15:26.566Z,101117.34
2023-03-12T05:17:54.722Z,101081.72
2023-03-12T05:20:21.721Z,101104.13
2023-03-12T05:22:48.101Z,101109.72
2023-03-12T05:25:14.638Z,101111.84
2023-03-12T05:27:41.058Z,101102.03
2023-03-12T05:30:07.958Z,101093.34
2023-03-12T05:32:34.438Z,101098.81
2023-03-12T05:35:00.858Z,101089.75
2023-03-12T05:37:27.398Z,101083.19
2023-03-12T05:39:54.346Z,101085.50
2023-03-12T05:42:20.746Z,101075.34
2023-03-12T05:44:47.101Z,101076.19
2023-03-12T05:47:13.516Z,101061.06
2023-03-12T05:49:39.872Z,101066.22
2023-03-12T05:52:06.783Z,101068.25
2023-03-12T05:54:33.325Z,101064.66
2023-03-12T05:56:59.745Z,101059.03
2023-03-12T05:59:26.175Z,101055.03
2023-03-12T06:01:52.640Z,101054.16
2023-03-12T06:04:19.037Z,101061.88
2023-03-12T06:06:45.416Z,101071.31
2023-03-12T06:09:11.939Z,101062.28
2023-03-12T06:11:38.359Z,101037.03
2023-03-12T06:14:05.180Z,101045.34
2023-03-12T06:16:31.635Z,101040.50
2023-03-12T06:19:00.989Z,101030.88
2023-03-12T06:21:32.876Z,101010.47
2023-03-12T06:23:59.933Z,101033.16
2023-03-12T06:26:27.577Z,100998.31
2023-03-12T06:28:54.431Z,101024.91
2023-03-12T06:31:21.510Z,101027.84
2023-03-12T06:33:48.136Z,101029.34
2023-03-12T06:36:14.690Z,101027.84
2023-03-12T06:38:41.687Z,101029.34
2023-03-12T06:41:14.203Z,101030.34
2023-03-12T06:43:41.633Z,101022.66
2023-03-12T06:46:11.240Z,101026.75
2023-03-12T06:48:41.084Z,101021.53
2023-03-12T06:51:09.297Z,101028.22
2023-03-12T06:53:35.717Z,101027.59
2023-03-12T06:56:02.335Z,101018.81
2023-03-12T06:58:28.714Z,101026.75
2023-03-12T07:00:55.608Z,101025.47
2023-03-12T07:03:22.342Z,101031.91
2023-03-12T07:05:50.457Z,101040.66
2023-03-12T07:08:18.529Z,101062.47
2023-03-12T07:10:45.584Z,101065.63
2023-03-12T07:13:12.327Z,101063.53
2023-03-12T07:15:38.754Z,101066.25
2023-03-12T07:18:06.830Z,101069.88
2023-03-12T07:20:36.868Z,101073.63
2023-03-12T07:23:03.515Z,101073.44
2023-03-12T07:25:29.890Z,101074.59
2023-03-12T07:27:56.250Z,101083.56
2023-03-12T07:30:22.803Z,101074.44
2023-03-12T07:32:49.274Z,101076.13
2023-03-12T07:35:15.760Z,101068.66
2023-03-12T07:37:42.120Z,101063.97
2023-03-12T07:40:10.510Z,101041.88
2023-03-12T07:42:36.900Z,101057.75
2023-03-12T07:45:04.190Z,101049.09
2023-03-12T07:47:31.048Z,101048.47
2023-03-12T07:49:57.606Z,101047.00
2023-03-12T07:52:24.141Z,101044.72
2023-03-12T07:54:52.727Z,101039.25
2023-03-12T07:57:19.288Z,101034.19
2023-03-12T07:59:47.095Z,101030.13
2023-03-12T08:02:14.229Z,101038.06
2023-03-12T08:04:40.982Z,101030.31
2023-03-12T08:07:09.235Z,101025.50
2023-03-12T08:09:36.206Z,101015.91
2023-03-12T08:12:02.603Z,101026.56
2023-03-12T08:14:31.612Z,101027.66
2023-03-12T08:16:58.786Z,101028.09
2023-03-12T08:19:25.722Z,101025.00
2023-03-12T08:21:53.208Z,101017.13
2023-03-12T08:24:21.415Z,101002.19
2023-03-12T08:26:48.275Z,100999.47
2023-03-12T08:29:15.435Z,101009.88
2023-03-12T08:31:53.687Z,101011.13
2023-03-12T08:34:28.208Z,101003.59
2023-03-12T08:36:54.598Z,101019.38
2023-03-12T08:39:21.030Z,101015.94
2023-03-12T08:41:47.436Z,101016.38
2023-03-12T08:44:13.808Z,101007.47
2023-03-12T08:46:40.175Z,101013.19
2023-03-12T08:49:06.540Z,100996.75
2023-03-12T08:51:32.987Z,100993.19
2023-03-12T08:53:59.335Z,100995.50
2023-03-12T08:56:25.694Z,100971.56
2023-03-12T08:58:52.179Z,100966.19
2023-03-12T09:01:18.579Z,100963.38
2023-03-12T09:03:46.072Z,100946.66
2023-03-12T09:06:16.606Z,100945.44
2023-03-12T09:08:43.899Z,100942.06
2023-03-12T09:11:11.761Z,100937.66
2023-03-12T09:13:58.138Z,100945.44
2023-03-12T09:16:25.426Z,100905.78
2023-03-12T09:18:51.826Z,100930.69
2023-03-12T09:21:18.240Z,100929.22
2023-03-12T09:23:44.639Z,100907.81
2023-03-12T09:26:12.387Z,100904.72
2023-03-12T09:28:39.032Z,100896.16
2023-03-12T09:31:05.943Z,100901.91
2023-03-12T09:33:33.881Z,100899.44
2023-03-12T09:36:00.845Z,100882.63
2023-03-12T09:38:28.323Z,100874.75
2023-03-12T09:40:56.403Z,100891.47
2023-03-12T09:43:32.604Z,100892.66
2023-03-12T09:46:00.236Z,100870.50
2023-03-12T09:48:37.417Z,100890.47
2023-03-12T09:51:26.785Z,100886.94
2023-03-12T09:53:56.153Z,100904.28
2023-03-12T09:56:23.253Z,100891.28
2023-03-12T09:58:54.489Z,100855.06
2023-03-12T10:01:32.694Z,100886.03
2023-03-12T10:04:28.668Z,100900.25
2023-03-12T10:07:20.804Z,100907.13
2023-03-12T10:10:23.767Z,100895.19
2023-03-12T10:13:08.700Z,100900.75
2023-03-12T10:15:41.148Z,100888.19
2023-03-12T10:18:17.467Z,100894.47
2023-03-12T10:21:07.535Z,100888.22
2023-03-12T10:23:42.723Z,100879.59
2023-03-12T10:26:23.005Z,100881.88
2023-03-12T10:28:53.296Z,100869.38
2023-03-12T10:31:26.612Z,100866.25
2023-03-12T10:33:57.036Z,100869.47
2023-03-12T10:36:39.511Z,100863.59
2023-03-12T10:39:16.088Z,100857.69
2023-03-12T10:41:44.567Z,100852.41
2023-03-12T10:44:18.107Z,100838.16
2023-03-12T10:46:53.967Z,100843.47
2023-03-12T10:49:23.286Z,100849.75
2023-03-12T10:52:05.871Z,100828.88
2023-03-12T10:54:38.529Z,100835.66
2023-03-12T10:57:05.261Z,100815.78
2023-03-12T10:59:35.554Z,100808.28
2023-03-12T11:02:03.680Z,100803.97
2023-03-12T11:04:33.218Z,100809.97
2023-03-12T11:07:19.125Z,100809.38
2023-03-12T11:09:46.159Z,100784.66
2023-03-12T11:12:30.775Z,100807.16
2023-03-12T11:14:58.318Z,100799.81
2023-03-12T11:17:29.453Z,100803.69
2023-03-12T11:19:55.854Z,100770.22
2023-03-12T11:22:34.394Z,100784.19
2023-03-12T11:25:06.069Z,100787.03
2023-03-12T11:27:42.855Z,100799.59
2023-03-12T11:30:14.726Z,100772.81
2023-03-12T11:32:50.032Z,100752.84
2023-03-12T11:35:29.913Z,100782.84
2023-03-12T11:37:59.076Z,100781.09
2023-03-12T11:40:40.789Z,100787.38
2023-03-12T11:43:43.320Z,100791.34
2023-03-12T11:46:29.673Z,100781.75
2023-03-12T11:49:20.639Z,100781.88
2023-03-12T11:52:05.028Z,100774.38
2023-03-12T11:54:53.124Z,100768.88
2023-03-12T11:57:27.601Z,100751.16
2023-03-12T12:00:14.150Z,100743.13
2023-03-12T12:02:44.107Z,100731.22
2023-03-12T12:05:35.798Z,100707.34
2023-03-12T12:08:31.140Z,100711.28
2023-03-12T12:11:07.607Z,100720.13
2023-03-12T12:13:40.150Z,100726.25
2023-03-12T12:16:19.146Z,100713.16
2023-03-12T12:19:05.601Z,100713.91
2023-03-12T12:21:38.185Z,100711.78
2023-03-12T12:24:18.506Z,100707.47
2023-03-12T12:27:08.372Z,100711.31
2023-03-12T12:29:51.386Z,100708.84
2023-03-12T12:32:32.394Z,100692.03
2023-03-12T12:35:34.565Z,100700.84
2023-03-12T12:38:09.190Z,100690.66
2023-03-12T12:40:40.822Z,100670.84
2023-03-12T12:43:30.193Z,100683.75
2023-03-12T12:46:01.835Z,100675.91
2023-03-12T12:48:36.550Z,100673.53
2023-03-12T12:51:07.561Z,100668.13
2023-03-12T12:53:51.703Z,100673.72
2023-03-12T12:56:28.856Z,100678.06
2023-03-12T12:59:33.695Z,100687.72
2023-03-12T13:02:02.020Z,100672.72
2023-03-12T13:04:34.646Z,100649.47
2023-03-12T13:07:25.844Z,100657.69
2023-03-12T13:09:57.294Z,100655.16
2023-03-12T13:12:32.834Z,100644.63
2023-03-12T13:15:01.139Z,100644.19
2023-03-12T13:17:34.579Z,100659.00
2023-03-12T13:20:11.206Z,100634.22
2023-03-12T13:22:37.526Z,100658.63
2023-03-12T13:25:28.855Z,100664.06
2023-03-12T13:28:01.106Z,100654.84
2023-03-12T13:30:45.868Z,100657.34
2023-03-12T13:33:16.118Z,100649.44
2023-03-12T13:35:42.627Z,100655.44
2023-03-12T13:38:33.988Z,100661.13
2023-03-12T13:41:01.974Z,100660.91
2023-03-12T13:43:46.655Z,100685.84
2023-03-12T13:46:16.011Z,100668.97
2023-03-12T13:48:46.842Z,100663.38
2023-03-12T13:51:24.915Z,100659.16
2023-03-12T13:53:59.341Z,100656.94
2023-03-12T13:56:32.504Z,100658.41
2023-03-12T13:59:01.235Z,100677.66
2023-03-12T14:01:31.920Z,100676.06
2023-03-12T14:04:05.769Z,100682.53
2023-03-12T14:06:50.991Z,100666.88
2023-03-12T14:09:46.313Z,100681.38
2023-03-12T14:12:22.303Z,100677.75
2023-03-12T14:15:18.419Z,100662.84
2023-03-12T14:17:45.510Z,100661.25
2023-03-12T14:20:18.495Z,100665.00
2023-03-12T14:22:51.033Z,100666.41
2023-03-12T14:25:36.463Z,100668.28
2023-03-12T14:28:10.764Z,100668.97
2023-03-12T14:31:03.204Z,100664.63
2023-03-12T14:33:48.399Z,100662.66
2023-03-12T14:36:19.109Z,100658.13
2023-03-12T14:38:47.945Z,100657.53
2023-03-12T14:41:25.713Z,100678.78
2023-03-12T14:43:54.117Z,100672.63
2023-03-12T14:46:24.755Z,100675.97
2023-03-12T14:48:53.377Z,100689.88
2023-03-12T14:51:24.335Z,100687.19
2023-03-12T14:53:51.793Z,100692.56
2023-03-12T14:56:30.890Z,100698.56
2023-03-12T14:58:59.423Z,100674.75
2023-03-12T15:01:33.900Z,100699.88
2023-03-12T15:04:03.253Z,100691.81
2023-03-12T15:06:42.836Z,100691.31
2023-03-12T15:09:19.347Z,100708.88
2023-03-12T15:11:54.226Z,100703.03
2023-03-12T15:14:22.079Z,100696.34
2023-03-12T15:16:49.342Z,100710.91
2023-03-12T15:19:20.238Z,100708.56
2023-03-12T15:21:46.882Z,100694.69
2023-03-12T15:24:14.427Z,100711.44
2023-03-12T15:26:41.381Z,100709.63
2023-03-12T15:29:13.677Z,100709.13
2023-03-12T15:31:45.878Z,100708.97
2023-03-12T15:34:16.248Z,100706.41
2023-03-12T15:36:48.675Z,100705.25
2023-03-12T15:39:21.305Z,100696.91
2023-03-12T15:41:49.528Z,100712.66
2023-03-12T15:44:20.744Z,100709.59
2023-03-12T15:46:49.124Z,100694.84
2023-03-12T15:49:26.443Z,100680.78
2023-03-12T15:52:02.216Z,100695.88
2023-03-12T15:54:29.576Z,100705.09
2023-03-12T15:57:19.763Z,100673.97
2023-03-12T16:00:06.885Z,100714.63
2023-03-12T16:02:48.109Z,100709.59
2023-03-12T16:05:14.629Z,100686.66
2023-03-12T16:07:41.034Z,100677.16
2023-03-12T16:10:13.477Z,100699.25
2023-03-12T16:12:40.483Z,100699.78
2023-03-12T16:15:07.329Z,100709.31
2023-03-12T16:17:33.725Z,100698.25
2023-03-12T16:20:00.106Z,100665.78
2023-03-12T16:22:26.759Z,100685.19
2023-03-12T16:24:53.128Z,100662.78
2023-03-12T16:27:31.804Z,100673.81
2023-03-12T16:29:58.818Z,100690.72
2023-03-12T16:32:25.274Z,100685.38
2023-03-12T16:34:51.645Z,100671.31
2023-03-12T16:37:18.068Z,100676.69
2023-03-12T16:39:46.366Z,100690.06
2023-03-12T16:42:18.064Z,100687.69
2023-03-12T16:44:46.388Z,100669.47
2023-03-12T16:47:13.673Z,100677.84
2023-03-12T16:49:40.391Z,100680.16
2023-03-12T16:52:22.119Z,100688.34
2023-03-12T16:54:49.707Z,100688.19
2023-03-12T16:57:45.446Z,100698.22
2023-03-12T17:00:16.111Z,100682.81
2023-03-12T17:02:42.553Z,100689.88
2023-03-12T17:05:09.334Z,100678.97
2023-03-12T17:07:35.758Z,100695.19
2023-03-12T17:10:02.495Z,100684.78
2023-03-12T17:12:31.493Z,100704.56
2023-03-12T17:15:00.164Z,100689.81
2023-03-12T17:17:26.601Z,100695.50
2023-03-12T17:19:53.013Z,100694.00
2023-03-12T17:22:20.246Z,100678.09
2023-03-12T17:24:47.219Z,100698.50
2023-03-12T17:27:15.541Z,100691.94
2023-03-12T17:29:41.986Z,100691.63
2023-03-12T17:32:08.470Z,100696.75
2023-03-12T17:34:34.918Z,100692.41
2023-03-12T17:37:02.413Z,100678.09
2023-03-12T17:39:28.995Z,100678.94
2023-03-12T17:41:55.465Z,100665.00
2023-03-12T17:44:21.880Z,100684.06
2023-03-12T17:46:58.944Z,100683.69
2023-03-12T17:49:26.161Z,100685.28
2023-03-12T17:51:52.573Z,100697.03
2023-03-12T17:54:18.956Z,100685.66
2023-03-12T17:56:45.340Z,100689.97
2023-03-12T17:59:11.700Z,100694.34
2023-03-12T18:01:38.080Z,100697.81
2023-03-12T18:04:04.628Z,100697.47
2023-03-12T18:06:31.123Z,100691.53
2023-03-12T18:08:57.536Z,100710.63
2023-03-12T18:11:23.971Z,100719.72
2023-03-12T18:13:50.391Z,100719.09
2023-03-12T18:16:17.559Z,100721.75
2023-03-12T18:18:43.976Z,100731.22
2023-03-12T18:21:10.366Z,100719.94
2023-03-12T18:23:36.784Z,100730.88
2023-03-12T18:26:04.321Z,100729.47
2023-03-12T18:28:30.779Z,100723.78
2023-03-12T18:30:57.162Z,100724.75
2023-03-12T18:33:23.555Z,100714.75
2023-03-12T18:35:50.520Z,100714.25
2023-03-12T18:38:17.992Z,100713.25
2023-03-12T18:40:44.436Z,100715.56
2023-03-12T18:43:11.033Z,100689.44
2023-03-12T18:45:41.643Z,100701.66
2023-03-12T18:48:08.056Z,100702.38
2023-03-12T18:50:34.520Z,100707.41
2023-03-12T18:53:00.864Z,100659.53
2023-03-12T18:55:27.246Z,100676.34
2023-03-12T18:57:53.706Z,100669.81
2023-03-12T19:00:20.243Z,100668.13
2023-03-12T19:02:48.038Z,100664.97
2023-03-12T19:05:14.766Z,100671.84
2023-03-12T19:07:41.525Z,100658.41
2023-03-12T19:10:08.978Z,100684.50
2023-03-12T19:12:42.352Z,100693.59
2023-03-12T19:15:15.493Z,100699.91
2023-03-12T19:17:41.862Z,100697.59
2023-03-12T19:20:09.515Z,100701.28
2023-03-12T19:22:35.915Z,100698.75
2023-03-12T19:25:02.322Z,100692.75
2023-03-12T19:27:29.772Z,100694.59
2023-03-12T19:29:56.219Z,100693.09
2023-03-12T19:32:25.360Z,100693.94
2023-03-12T19:34:54.118Z,100671.81
2023-03-12T19:37:22.060Z,100688.44
2023-03-12T19:39:48.422Z,100679.88
2023-03-12T19:42:14.853Z,100679.44
2023-03-12T19:44:42.175Z,100674.28
2023-03-12T19:47:08.653Z,100670.47
2023-03-12T19:49:36.079Z,100665.59
2023-03-12T19:52:03.841Z,100658.28
2023-03-12T19:54:30.363Z,100650.75
2023-03-12T19:56:56.754Z,100621.09
2023-03-12T19:59:23.175Z,100644.69
2023-03-12T20:01:49.576Z,100637.53
2023-03-12T20:04:16.124Z,100636.22
2023-03-12T20:06:42.698Z,100631.84
2023-03-12T20:09:09.104Z,100626.69
2023-03-12T20:11:35.813Z,100614.19
2023-03-12T20:14:03.805Z,100612.81
2023-03-12T20:16:30.567Z,100568.66
2023-03-12T20:18:57.458Z,100589.28
2023-03-12T20:21:23.847Z,100603.81
2023-03-12T20:23:50.228Z,100597.16
2023-03-12T20:26:16.616Z,100598.16
2023-03-12T20:28:43.061Z,100598.16
2023-03-12T20:31:11.468Z,100592.13
2023-03-12T20:33:38.137Z,100599.31
2023-03-12T20:36:06.693Z,100592.97
2023-03-12T20:38:33.236Z,100593.78
2023-03-12T20:40:59.652Z,100597.31
2023-03-12T20:43:26.144Z,100607.88
2023-03-12T20:45:52.536Z,100600.47
2023-03-12T20:48:19.096Z,100593.13
2023-03-12T20:50:45.989Z,100602.34
2023-03-12T20:53:12.359Z,100603.53
2023-03-12T20:55:38.880Z,100601.34
2023-03-12T20:58:05.497Z,100590.28
2023-03-12T21:00:32.028Z,100589.78
2023-03-12T21:02:58.399Z,100593.63
2023-03-12T21:05:26.835Z,100593.13
2023-03-12T21:07:54.140Z,100580.56
2023-03-12T21:10:20.907Z,100578.06
2023-03-12T21:12:47.314Z,100575.38
2023-03-12T21:15:13.808Z,100575.72
2023-03-12T21:17:40.626Z,100575.03
2023-03-12T21:20:10.163Z,100574.72
2023-03-12T21:22:37.253Z,100579.72
2023-03-12T21:25:04.209Z,100573.03
2023-03-12T21:27:41.206Z,100568.00
2023-03-12T21:30:14.832Z,100574.69
2023-03-12T21:32:41.245Z,100564.97
2023-03-12T21:35:08.089Z,100564.16
2023-03-12T21:37:34.433Z,100553.25
2023-03-12T21:40:01.388Z,100558.28
2023-03-12T21:42:28.672Z,100561.63
2023-03-12T21:44:55.074Z,100546.72
2023-03-12T21:47:21.620Z,100550.25
2023-03-12T21:49:48.181Z,100536.53
2023-03-12T21:52:14.530Z,100538.22
2023-03-12T21:54:40.941Z,100531.53
2023-03-12T21:57:07.396Z,100536.56
2023-03-12T21:59:33.807Z,100528.69
2023-03-12T22:02:00.253Z,100530.53
2023-03-12T22:04:27.696Z,100514.81
2023-03-12T22:06:55.445Z,100526.03
2023-03-12T22:09:22.002Z,100517.78
2023-03-12T22:11:48.396Z,100517.47
2023-03-12T22:14:14.804Z,100505.06
2023-03-12T22:16:41.226Z,100503.72
2023-03-12T22:19:08.421Z,100501.72
2023-03-12T22:21:34.810Z,100487.78
2023-03-12T22:24:01.967Z,100486.41
2023-03-12T22:26:28.427Z,100491.63
2023-03-12T22:28:57.448Z,100470.03
2023-03-12T22:31:26.791Z,100478.19
2023-03-12T22:33:53.224Z,100475.16
2023-03-12T22:36:20.246Z,100439.06
2023-03-12T22:38:47.753Z,100473.19
2023-03-12T22:41:21.049Z,100457.59
2023-03-12T22:43:48.923Z,100447.53
2023-03-12T22:46:16.587Z,100450.72
2023-03-12T22:48:44.348Z,100449.50
2023-03-12T22:51:11.053Z,100445.34
2023-03-12T22:53:37.452Z,100437.47
2023-03-12T22:56:06.645Z,100449.63
2023-03-12T22:58:33.329Z,100452.63
2023-03-12T23:01:05.391Z,100443.09
2023-03-12T23:03:33.095Z,100446.56
2023-03-12T23:06:00.476Z,100440.03
2023-03-12T23:08:28.063Z,100414.25
2023-03-12T23:10:58.021Z,100428.69
2023-03-12T23:13:25.899Z,100432.56
2023-03-12T23:15:52.819Z,100420.47
2023-03-12T23:18:19.778Z,100409.41
2023-03-12T23:20:46.814Z,100405.50
2023-03-12T23:23:15.696Z,100368.28
2023-03-12T23:25:42.066Z,100395.63
2023-03-12T23:28:08.479Z,100387.25
2023-03-12T23:30:34.858Z,100376.16
2023-03-12T23:33:01.948Z,100364.97
2023-03-12T23:35:28.719Z,100366.75
2023-03-12T23:37:56.436Z,100370.78
2023-03-12T23:40:22.784Z,100356.25
2023-03-12T23:42:49.176Z,100348.03
2023-03-12T23:45:15.837Z,100345.03
2023-03-12T23:47:42.195Z,100342.69
2023-03-12T23:50:09.251Z,100341.66
2023-03-12T23:52:35.623Z,100343.84
2023-03-12T23:55:01.995Z,100327.31
2023-03-12T23:57:29.279Z,100324.75
2023-03-12T23:59:55.635Z,100308.28
